Melissa, Texas
Current Conditions -  °F | °C
As of 3:53 PM on Friday 31 Oct 2014 (Local Time) from KTKI Reporting Station
Clear Clear  
Wind Chill: 65°   Ceiling: Unl
Heat Index: 65°   Visibility: 10mi
Dew Point: 39°   Wind: 16mph
Humidity: 39%   Direction: 10°N
Pressure: 30.28"   Gusts: 21mph
Location:  33.29°N, 96.57°W
Report Text: KTKI 312053Z 01014G18KT 10SM CLR 18/04 A3028 RMK AO2 SLP259 60000 T01830039 57013
Loading
Personal Weather Stations






























Interactive Weather Map
Tropical Storm Tracking
New forecast layout! Learn more

10-Day Weather Forecast

Advertisements
Track Severe Weather on mobile